UAL113 KCMH-EGLL
Flight info
| Callsign | UAL113 |
|---|---|
| Flight time | N/A |
| Altitude | 33000 |
| Route | OWEBO DCT HLG DCT PSB DCT DGRAF J49 HNK DCT ENE DCT EBONY N903A NICSO/M079F350 DCT 48N050W 50N040W 51N030W 52N020W DCT LIMRI/N0453F350 DCT XETBO/N0452F370 DCT ENJEX DCT AVZAC DCT INFEC DCT JETZI DCT AMFUL DCT OCTIZ/N0407F230 P2 SIRIC |
| Aircraft | A21N/M-SDE2E3FGHIRWXY/LB1 |
Departure
| Time | 2026-05-09 00:24 |
|---|---|
| Airport | John Glenn Columbus International Airport (KCMH) |
Arrival
| Time | N/A |
|---|---|
| Airport | London Heathrow Airport (EGLL) |
| Time | Latitude | Longitude | Altitude | Speed | Heading |
|---|---|---|---|---|---|
| 2026-05-08 23:40 | 39.99755 | -82.88009 | 828 ft | 0 kts | 274° |
| 2026-05-09 00:12 | 39.99755 | -82.88001 | 828 ft | 2 kts | 275° |
| 2026-05-09 00:12 | 39.99753 | -82.87976 | 828 ft | 3 kts | 275° |
| 2026-05-09 00:12 | 39.99751 | -82.87949 | 828 ft | 3 kts | 272° |
| 2026-05-09 00:12 | 39.99752 | -82.87923 | 828 ft | 3 kts | 256° |
| 2026-05-09 00:13 | 39.99758 | -82.87904 | 824 ft | 3 kts | 205° |
| 2026-05-09 00:13 | 39.99769 | -82.87900 | 826 ft | 3 kts | 185° |
| 2026-05-09 00:13 | 39.99788 | -82.87898 | 826 ft | 2 kts | 185° |
| 2026-05-09 00:13 | 39.99793 | -82.87897 | 826 ft | 0 kts | 185° |
| 2026-05-09 00:17 | 39.99784 | -82.87898 | 824 ft | 3 kts | 185° |
| 2026-05-09 00:18 | 39.99765 | -82.87901 | 826 ft | 6 kts | 185° |
| 2026-05-09 00:18 | 39.99732 | -82.87905 | 824 ft | 3 kts | 185° |
| 2026-05-09 00:18 | 39.99711 | -82.87896 | 828 ft | 6 kts | 136° |
| 2026-05-09 00:18 | 39.99704 | -82.87857 | 828 ft | 7 kts | 97° |
| 2026-05-09 00:19 | 39.99697 | -82.87758 | 828 ft | 6 kts | 94° |
| 2026-05-09 00:19 | 39.99701 | -82.87716 | 825 ft | 2 kts | 57° |
| 2026-05-09 00:19 | 39.99722 | -82.87703 | 828 ft | 3 kts | 6° |
| 2026-05-09 00:19 | 39.99764 | -82.87697 | 828 ft | 16 kts | 5° |
| 2026-05-09 00:20 | 39.99862 | -82.87690 | 828 ft | 12 kts | 1° |
| 2026-05-09 00:20 | 39.99908 | -82.87691 | 828 ft | 1 kts | 339° |
| 2026-05-09 00:20 | 39.99913 | -82.87695 | 828 ft | 3 kts | 326° |
| 2026-05-09 00:20 | 39.99927 | -82.87746 | 828 ft | 6 kts | 273° |
| 2026-05-09 00:21 | 39.99930 | -82.87795 | 826 ft | 6 kts | 274° |
| 2026-05-09 00:21 | 39.99933 | -82.87850 | 828 ft | 8 kts | 273° |
| 2026-05-09 00:21 | 39.99954 | -82.87928 | 826 ft | 10 kts | 319° |
| 2026-05-09 00:21 | 40.00028 | -82.87945 | 828 ft | 9 kts | 3° |
| 2026-05-09 00:22 | 40.00063 | -82.87942 | 827 ft | 0 kts | 4° |
| 2026-05-09 00:22 | 40.00100 | -82.87938 | 827 ft | 12 kts | 4° |
| 2026-05-09 00:22 | 40.00154 | -82.87967 | 827 ft | 7 kts | 304° |
| 2026-05-09 00:23 | 40.00167 | -82.88065 | 827 ft | 24 kts | 274° |
| 2026-05-09 00:23 | 40.00195 | -82.88549 | 829 ft | 83 kts | 274° |
| 2026-05-09 00:23 | 40.00251 | -82.89578 | 825 ft | 145 kts | 274° |
| 2026-05-09 00:23 | 40.00328 | -82.91052 | 1049 ft | 172 kts | 271° |
| 2026-05-09 00:24 | 40.00358 | -82.92592 | 1714 ft | 168 kts | 272° |
| 2026-05-09 00:24 | 40.00434 | -82.94063 | 2528 ft | 159 kts | 273° |
| 2026-05-09 00:24 | 40.00537 | -82.95578 | 2951 ft | 179 kts | 273° |
| 2026-05-09 00:24 | 40.00666 | -82.97307 | 3206 ft | 206 kts | 274° |
| 2026-05-09 00:25 | 40.00819 | -82.99305 | 3459 ft | 235 kts | 274° |
| 2026-05-09 00:25 | 40.01033 | -83.01478 | 4132 ft | 247 kts | 282° |
| 2026-05-09 00:25 | 40.01870 | -83.03460 | 5015 ft | 258 kts | 309° |
| 2026-05-09 00:25 | 40.03386 | -83.04772 | 5654 ft | 272 kts | 335° |
| 2026-05-09 00:26 | 40.05316 | -83.05071 | 6288 ft | 290 kts | 1° |
| 2026-05-09 00:26 | 40.07317 | -83.04514 | 6969 ft | 299 kts | 14° |
| 2026-05-09 00:26 | 40.09208 | -83.03298 | 7637 ft | 309 kts | 35° |
| 2026-05-09 00:26 | 40.10596 | -83.01154 | 8312 ft | 315 kts | 66° |
| 2026-05-09 00:27 | 40.11217 | -82.98412 | 9020 ft | 316 kts | 83° |
| 2026-05-09 00:27 | 40.11383 | -82.95535 | 9674 ft | 319 kts | 92° |
| 2026-05-09 00:27 | 40.11303 | -82.92620 | 10232 ft | 326 kts | 96° |
| 2026-05-09 00:27 | 40.11124 | -82.89587 | 10496 ft | 344 kts | 97° |
| 2026-05-09 00:28 | 40.10926 | -82.86389 | 10740 ft | 363 kts | 96° |
| 2026-05-09 00:28 | 40.10753 | -82.83022 | 10988 ft | 381 kts | 95° |
| 2026-05-09 00:28 | 40.10615 | -82.79488 | 11240 ft | 398 kts | 94° |
| 2026-05-09 00:28 | 40.10508 | -82.75811 | 11528 ft | 411 kts | 93° |
| 2026-05-09 00:29 | 40.10420 | -82.72040 | 12019 ft | 419 kts | 92° |
| 2026-05-09 00:29 | 40.10340 | -82.68208 | 12562 ft | 425 kts | 92° |
| 2026-05-09 00:29 | 40.10260 | -82.64338 | 13127 ft | 429 kts | 91° |
| 2026-05-09 00:29 | 40.10177 | -82.60419 | 13688 ft | 433 kts | 91° |
| 2026-05-09 00:30 | 40.10088 | -82.56464 | 14176 ft | 438 kts | 91° |
| 2026-05-09 00:30 | 40.09995 | -82.52473 | 14647 ft | 442 kts | 91° |
| 2026-05-09 00:30 | 40.09899 | -82.48489 | 15130 ft | 446 kts | 91° |
| 2026-05-09 00:30 | 40.09798 | -82.44367 | 15617 ft | 450 kts | 91° |
| 2026-05-09 00:31 | 40.09696 | -82.40317 | 16107 ft | 454 kts | 91° |
| 2026-05-09 00:31 | 40.09589 | -82.36169 | 16552 ft | 459 kts | 91° |
| 2026-05-09 00:31 | 40.09481 | -82.31989 | 16986 ft | 463 kts | 91° |
| 2026-05-09 00:31 | 40.09370 | -82.27769 | 17439 ft | 467 kts | 92° |
| 2026-05-09 00:32 | 40.09257 | -82.23515 | 17895 ft | 470 kts | 92° |
| 2026-05-09 00:32 | 40.09142 | -82.19223 | 18316 ft | 474 kts | 91° |
| 2026-05-09 00:32 | 40.09024 | -82.14908 | 18691 ft | 478 kts | 92° |
| 2026-05-09 00:32 | 40.08904 | -82.10547 | 19049 ft | 482 kts | 92° |
| 2026-05-09 00:33 | 40.08782 | -82.06163 | 19421 ft | 485 kts | 90° |
| 2026-05-09 00:33 | 40.08679 | -82.01746 | 19764 ft | 489 kts | 91° |
| 2026-05-09 00:33 | 40.08554 | -81.97292 | 20125 ft | 492 kts | 92° |
| 2026-05-09 00:33 | 40.08417 | -81.92816 | 20482 ft | 496 kts | 92° |
| 2026-05-09 00:34 | 40.08276 | -81.88300 | 20821 ft | 499 kts | 92° |
| 2026-05-09 00:34 | 40.08133 | -81.83758 | 21163 ft | 502 kts | 92° |
| 2026-05-09 00:34 | 40.07990 | -81.79183 | 21490 ft | 506 kts | 92° |
| 2026-05-09 00:34 | 40.07870 | -81.74578 | 21807 ft | 509 kts | 89° |
| 2026-05-09 00:35 | 40.08116 | -81.69962 | 22135 ft | 511 kts | 80° |
| 2026-05-09 00:35 | 40.08665 | -81.65378 | 22498 ft | 513 kts | 78° |
| 2026-05-09 00:35 | 40.09336 | -81.60791 | 22819 ft | 516 kts | 76° |
| 2026-05-09 00:35 | 40.10079 | -81.56197 | 23145 ft | 519 kts | 75° |
| 2026-05-09 00:36 | 40.10854 | -81.51583 | 23476 ft | 522 kts | 75° |
| 2026-05-09 00:36 | 40.11640 | -81.46942 | 23779 ft | 524 kts | 75° |
| 2026-05-09 00:36 | 40.12424 | -81.42277 | 24056 ft | 527 kts | 75° |
| 2026-05-09 00:36 | 40.13202 | -81.37585 | 24345 ft | 530 kts | 75° |
| 2026-05-09 00:37 | 40.13976 | -81.32862 | 24625 ft | 533 kts | 75° |
| 2026-05-09 00:37 | 40.14747 | -81.28110 | 24931 ft | 535 kts | 75° |
| 2026-05-09 00:37 | 40.15514 | -81.23351 | 25284 ft | 535 kts | 75° |
| 2026-05-09 00:37 | 40.16277 | -81.18591 | 25662 ft | 535 kts | 75° |
| 2026-05-09 00:38 | 40.17039 | -81.13828 | 26028 ft | 535 kts | 75° |
| 2026-05-09 00:38 | 40.17797 | -81.09073 | 26370 ft | 535 kts | 75° |
| 2026-05-09 00:38 | 40.18555 | -81.04307 | 26701 ft | 535 kts | 75° |
| 2026-05-09 00:38 | 40.19312 | -80.99543 | 27028 ft | 535 kts | 75° |
| 2026-05-09 00:39 | 40.20068 | -80.94774 | 27360 ft | 535 kts | 75° |
| 2026-05-09 00:39 | 40.20821 | -80.90010 | 27666 ft | 535 kts | 75° |
| 2026-05-09 00:39 | 40.21575 | -80.85230 | 27895 ft | 538 kts | 75° |
| 2026-05-09 00:39 | 40.22329 | -80.80437 | 28199 ft | 538 kts | 75° |
| 2026-05-09 00:40 | 40.23079 | -80.75645 | 28553 ft | 536 kts | 75° |
| 2026-05-09 00:40 | 40.23827 | -80.70860 | 28828 ft | 537 kts | 75° |
| 2026-05-09 00:40 | 40.24571 | -80.66071 | 29112 ft | 537 kts | 75° |
| 2026-05-09 00:41 | 40.26192 | -80.56602 | 29652 ft | 534 kts | 68° |
| 2026-05-09 00:41 | 40.27343 | -80.51912 | 29930 ft | 534 kts | 67° |
| 2026-05-09 00:41 | 40.28527 | -80.47302 | 30124 ft | 534 kts | 66° |
| 2026-05-09 00:41 | 40.29730 | -80.42759 | 30291 ft | 535 kts | 66° |
| 2026-05-09 00:42 | 40.30966 | -80.38156 | 30460 ft | 537 kts | 66° |
| 2026-05-09 00:42 | 40.32210 | -80.33536 | 30604 ft | 538 kts | 66° |
| 2026-05-09 00:42 | 40.33452 | -80.28910 | 30783 ft | 539 kts | 66° |
| 2026-05-09 00:42 | 40.34693 | -80.24261 | 30940 ft | 540 kts | 66° |
| 2026-05-09 00:43 | 40.35930 | -80.19607 | 31104 ft | 541 kts | 66° |
| 2026-05-09 00:43 | 40.37166 | -80.14937 | 31246 ft | 542 kts | 66° |
| 2026-05-09 00:43 | 40.39642 | -80.05547 | 31497 ft | 546 kts | 66° |
| 2026-05-09 00:44 | 40.40879 | -80.00835 | 31674 ft | 546 kts | 67° |
| 2026-05-09 00:44 | 40.42115 | -79.96117 | 31829 ft | 547 kts | 66° |
| 2026-05-09 00:44 | 40.43353 | -79.91388 | 31985 ft | 548 kts | 67° |
| 2026-05-09 00:44 | 40.44591 | -79.86646 | 32152 ft | 548 kts | 67° |
| 2026-05-09 00:45 | 40.45826 | -79.81907 | 32299 ft | 549 kts | 67° |
| 2026-05-09 00:45 | 40.47061 | -79.77163 | 32496 ft | 550 kts | 66° |
| 2026-05-09 00:45 | 40.48298 | -79.72404 | 32630 ft | 551 kts | 67° |
| 2026-05-09 00:45 | 40.49533 | -79.67639 | 32752 ft | 552 kts | 67° |
| 2026-05-09 00:46 | 40.50769 | -79.62861 | 32871 ft | 553 kts | 67° |
| 2026-05-09 00:46 | 40.52007 | -79.58068 | 32954 ft | 554 kts | 67° |
| 2026-05-09 00:46 | 40.54476 | -79.48473 | 32964 ft | 554 kts | 67° |
| 2026-05-09 00:47 | 40.56933 | -79.38873 | 32965 ft | 554 kts | 67° |
| 2026-05-09 00:47 | 40.59384 | -79.29276 | 32958 ft | 554 kts | 67° |
| 2026-05-09 00:48 | 40.61831 | -79.19670 | 32951 ft | 553 kts | 67° |
| 2026-05-09 00:48 | 40.64268 | -79.10055 | 32957 ft | 554 kts | 67° |
| 2026-05-09 00:49 | 40.66697 | -79.00429 | 32960 ft | 554 kts | 67° |
| 2026-05-09 00:49 | 40.69117 | -78.90802 | 32963 ft | 554 kts | 67° |
| 2026-05-09 00:50 | 40.71528 | -78.81169 | 32970 ft | 554 kts | 68° |
| 2026-05-09 00:50 | 40.73933 | -78.71523 | 32976 ft | 554 kts | 68° |
| 2026-05-09 00:51 | 40.76330 | -78.61868 | 32967 ft | 554 kts | 67° |
| 2026-05-09 00:51 | 40.78719 | -78.52208 | 32972 ft | 554 kts | 68° |
| 2026-05-09 00:52 | 40.81099 | -78.42541 | 32958 ft | 554 kts | 68° |
| 2026-05-09 00:52 | 40.83471 | -78.32868 | 32954 ft | 554 kts | 68° |
| 2026-05-09 00:53 | 40.85836 | -78.23185 | 32956 ft | 554 kts | 68° |
| 2026-05-09 00:53 | 40.87794 | -78.15138 | 32959 ft | 554 kts | 68° |
| 2026-05-09 00:54 | 40.90144 | -78.05444 | 32957 ft | 554 kts | 68° |
| 2026-05-09 00:54 | 40.93698 | -77.94757 | 32982 ft | 543 kts | 54° |
| 2026-05-09 00:55 | 40.96827 | -77.87492 | 32960 ft | 541 kts | 52° |
| 2026-05-09 00:55 | 41.00670 | -77.78926 | 32961 ft | 542 kts | 52° |
| 2026-05-09 00:56 | 41.04514 | -77.70349 | 32959 ft | 542 kts | 52° |
| 2026-05-09 00:56 | 41.08351 | -77.61723 | 32959 ft | 543 kts | 52° |
| 2026-05-09 00:57 | 41.12164 | -77.53105 | 32963 ft | 541 kts | 53° |
| 2026-05-09 00:57 | 41.15959 | -77.44485 | 32956 ft | 541 kts | 53° |
| 2026-05-09 00:58 | 41.19745 | -77.35851 | 32952 ft | 541 kts | 53° |
| 2026-05-09 00:58 | 41.23526 | -77.27216 | 32947 ft | 541 kts | 53° |
| 2026-05-09 00:59 | 41.27279 | -77.18627 | 32974 ft | 541 kts | 53° |
| 2026-05-09 00:59 | 41.31038 | -77.09995 | 32933 ft | 538 kts | 53° |
| 2026-05-09 01:00 | 41.34803 | -77.01325 | 32929 ft | 537 kts | 53° |
| 2026-05-09 01:00 | 41.38508 | -76.92766 | 32925 ft | 537 kts | 53° |
| 2026-05-09 01:01 | 41.42231 | -76.84133 | 32942 ft | 537 kts | 53° |
| 2026-05-09 01:01 | 41.45944 | -76.75518 | 32939 ft | 532 kts | 53° |
| 2026-05-09 01:02 | 41.49596 | -76.67000 | 32947 ft | 528 kts | 53° |
| 2026-05-09 01:02 | 41.53237 | -76.58497 | 32941 ft | 527 kts | 53° |
| 2026-05-09 01:03 | 41.56872 | -76.49990 | 32931 ft | 527 kts | 53° |
| 2026-05-09 01:03 | 41.60503 | -76.41459 | 32990 ft | 529 kts | 54° |
| 2026-05-09 01:04 | 41.64096 | -76.32984 | 32945 ft | 520 kts | 54° |
| 2026-05-09 01:04 | 41.67651 | -76.24582 | 32947 ft | 519 kts | 54° |
| 2026-05-09 01:05 | 41.71204 | -76.16170 | 32937 ft | 519 kts | 54° |
| 2026-05-09 01:06 | 41.76541 | -76.03486 | 32994 ft | 523 kts | 54° |
| 2026-05-09 01:06 | 41.80083 | -75.95021 | 32946 ft | 519 kts | 54° |
| 2026-05-09 01:07 | 41.83605 | -75.86579 | 32950 ft | 518 kts | 54° |
| 2026-05-09 01:07 | 41.87121 | -75.78136 | 32942 ft | 518 kts | 54° |
| 2026-05-09 01:08 | 41.90640 | -75.69667 | 32954 ft | 521 kts | 54° |
| 2026-05-09 01:08 | 41.94162 | -75.61168 | 32960 ft | 521 kts | 55° |
| 2026-05-09 01:09 | 41.97677 | -75.52656 | 32956 ft | 521 kts | 54° |
| 2026-05-09 01:09 | 42.01187 | -75.44133 | 32963 ft | 521 kts | 55° |
| 2026-05-09 01:10 | 42.04691 | -75.35600 | 32960 ft | 521 kts | 55° |
| 2026-05-09 01:10 | 42.07839 | -75.26767 | 32992 ft | 524 kts | 61° |
| 2026-05-09 01:11 | 42.10718 | -75.17811 | 32968 ft | 520 kts | 62° |